Hanna, Wyoming
Current Conditions -  °F | °C
As of 10:55 PM on Tuesday 21 Oct 2014 (Local Time) from KEHY Reporting Station
Broken Clouds Broken Clouds  
Wind Chill: 38°   Ceiling: 4500
Heat Index: 43°   Visibility: 10mi
Dew Point: 37°   Wind: 8mph
Humidity: 81%   Direction: 220°SW
Pressure: 30.06"   Gusts: NA
Location:  41.87°N, 106.56°W
Report Text: KEHY 220455Z AUTO 22007KT 10SM BKN045 06/03 A3006 RMK AO2
Loading
Personal Weather Stations






























Interactive Weather Map
Tropical Storm Tracking
New forecast layout! Learn more

10-Day Weather Forecast

Advertisements
Track Severe Weather on mobile